createdAt,value
2023-12-04T00:02:01.476Z,19.10
2023-12-04T00:04:28.340Z,22.27
2023-12-04T00:06:55.248Z,20.02
2023-12-04T00:09:22.300Z,19.92
2023-12-04T00:11:49.001Z,22.83
2023-12-04T00:14:15.665Z,21.08
2023-12-04T00:16:42.410Z,21.88
2023-12-04T00:19:10.953Z,22.33
2023-12-04T00:21:38.003Z,20.38
2023-12-04T00:24:05.833Z,22.40
2023-12-04T00:26:32.575Z,21.92
2023-12-04T00:28:59.246Z,23.08
2023-12-04T00:31:25.998Z,21.42
2023-12-04T00:33:52.780Z,20.75
2023-12-04T00:36:20.844Z,22.50
2023-12-04T00:38:47.653Z,20.35
2023-12-04T00:41:14.341Z,18.40
2023-12-04T00:43:41.064Z,17.67
2023-12-04T00:46:08.077Z,20.50
2023-12-04T00:48:35.221Z,18.95
2023-12-04T00:51:02.118Z,18.52
2023-12-04T00:53:28.803Z,17.13
2023-12-04T00:55:55.467Z,16.13
2023-12-04T00:58:22.141Z,15.82
2023-12-04T01:00:50.323Z,16.85
2023-12-04T01:03:17.100Z,14.88
2023-12-04T01:05:43.831Z,15.05
2023-12-04T01:08:10.624Z,13.75
2023-12-04T01:10:37.314Z,15.18
2023-12-04T01:13:04.203Z,15.40
2023-12-04T01:15:30.984Z,13.60
2023-12-04T01:17:57.844Z,14.38
2023-12-04T01:20:24.591Z,14.35
2023-12-04T01:22:52.227Z,13.82
2023-12-04T01:25:20.104Z,14.15
2023-12-04T01:27:46.783Z,14.30
2023-12-04T01:30:15.278Z,14.07
2023-12-04T01:32:42.028Z,13.55
2023-12-04T01:35:08.835Z,15.43
2023-12-04T01:37:35.527Z,13.02
2023-12-04T01:40:02.573Z,13.52
2023-12-04T01:42:29.546Z,13.85
2023-12-04T01:44:56.895Z,13.13
2023-12-04T01:47:23.767Z,14.45
2023-12-04T01:49:50.538Z,13.85
2023-12-04T01:52:18.132Z,14.88
2023-12-04T01:54:45.363Z,13.20
2023-12-04T01:57:12.364Z,12.90
2023-12-04T01:59:39.636Z,13.07
2023-12-04T02:02:06.539Z,14.73
2023-12-04T02:04:34.021Z,13.80
2023-12-04T02:07:02.100Z,13.25
2023-12-04T02:09:30.507Z,12.27
2023-12-04T02:11:59.091Z,12.88
2023-12-04T02:14:26.433Z,12.40
2023-12-04T02:16:54.704Z,13.57
2023-12-04T02:19:22.637Z,13.02
2023-12-04T02:21:49.368Z,13.23
2023-12-04T02:24:16.347Z,14.93
2023-12-04T02:26:53.408Z,13.70
2023-12-04T02:29:30.760Z,13.65
2023-12-04T02:31:59.279Z,13.32
2023-12-04T02:34:28.657Z,14.13
2023-12-04T02:36:55.832Z,12.85
2023-12-04T02:39:23.123Z,12.82
2023-12-04T02:41:50.266Z,12.68
2023-12-04T02:44:16.943Z,13.13
2023-12-04T02:46:44.196Z,14.07
2023-12-04T02:49:11.063Z,14.18
2023-12-04T02:51:37.776Z,13.25
2023-12-04T02:54:04.739Z,14.77
2023-12-04T02:56:31.444Z,14.02
2023-12-04T02:58:58.098Z,13.90
2023-12-04T03:01:24.833Z,12.68
2023-12-04T03:03:52.342Z,14.20
2023-12-04T03:06:19.268Z,12.80
2023-12-04T03:08:45.972Z,13.15
2023-12-04T03:11:12.626Z,14.73
2023-12-04T03:13:39.698Z,12.40
2023-12-04T03:16:06.707Z,12.93
2023-12-04T03:18:33.541Z,14.32
2023-12-04T03:21:00.333Z,13.98
2023-12-04T03:23:26.974Z,14.13
2023-12-04T03:25:54.331Z,14.23
2023-12-04T03:28:21.055Z,13.38
2023-12-04T03:30:47.797Z,13.48
2023-12-04T03:33:14.610Z,13.88
2023-12-04T03:35:41.546Z,13.23
2023-12-04T03:38:08.340Z,13.15
2023-12-04T03:40:34.972Z,13.00
2023-12-04T03:43:01.692Z,12.68
2023-12-04T03:45:28.800Z,13.98
2023-12-04T03:47:56.018Z,13.70
2023-12-04T03:50:22.770Z,13.55
2023-12-04T03:52:49.552Z,14.05
2023-12-04T03:55:16.426Z,13.38
2023-12-04T03:57:43.247Z,13.93
2023-12-04T04:00:11.448Z,13.63
2023-12-04T04:02:40.306Z,14.75
2023-12-04T04:05:07.144Z,14.25
2023-12-04T04:07:34.035Z,13.10
2023-12-04T04:10:01.634Z,14.25
2023-12-04T04:12:28.710Z,15.32
2023-12-04T04:14:55.334Z,13.05
2023-12-04T04:17:22.050Z,13.65
2023-12-04T04:19:48.748Z,14.63
2023-12-04T04:22:15.666Z,13.73
2023-12-04T04:24:42.426Z,14.05
2023-12-04T04:27:09.298Z,13.68
2023-12-04T04:29:36.136Z,13.13
2023-12-04T04:32:02.895Z,14.20
2023-12-04T04:34:29.709Z,14.07
2023-12-04T04:36:57.321Z,12.68
2023-12-04T04:39:24.128Z,13.75
2023-12-04T04:41:51.066Z,12.77
2023-12-04T04:44:17.905Z,15.05
2023-12-04T04:46:45.568Z,13.20
2023-12-04T04:49:12.398Z,14.00
2023-12-04T04:51:39.344Z,13.43
2023-12-04T04:54:06.281Z,14.75
2023-12-04T04:56:33.193Z,14.13
2023-12-04T04:59:00.051Z,15.18
2023-12-04T05:01:26.888Z,13.70
2023-12-04T05:03:53.593Z,13.57
2023-12-04T05:06:20.763Z,13.93
2023-12-04T05:08:47.765Z,13.20
2023-12-04T05:11:16.529Z,13.98
2023-12-04T05:13:43.824Z,13.95
2023-12-04T05:16:11.114Z,13.55
2023-12-04T05:18:39.566Z,13.07
2023-12-04T05:21:10.850Z,13.40
2023-12-04T05:23:38.819Z,14.23
2023-12-04T05:26:08.684Z,13.00
2023-12-04T05:28:35.896Z,12.88
2023-12-04T05:31:02.926Z,12.35
2023-12-04T05:33:30.082Z,12.55
2023-12-04T05:35:56.908Z,13.30
2023-12-04T05:38:23.624Z,13.20
2023-12-04T05:40:50.486Z,12.95
2023-12-04T05:43:17.400Z,13.75
2023-12-04T05:45:44.419Z,13.05
2023-12-04T05:48:11.353Z,12.88
2023-12-04T05:50:38.221Z,12.88
2023-12-04T05:53:05.032Z,13.88
2023-12-04T05:55:32.049Z,13.80
2023-12-04T05:57:58.868Z,14.02
2023-12-04T06:00:28.545Z,12.50
2023-12-04T06:02:56.428Z,11.98
2023-12-04T06:05:24.712Z,12.48
2023-12-04T06:07:51.682Z,11.90
2023-12-04T06:10:18.671Z,12.45
2023-12-04T06:12:45.564Z,11.65
2023-12-04T06:15:12.512Z,11.40
2023-12-04T06:17:39.340Z,11.10
2023-12-04T06:20:07.841Z,11.48
2023-12-04T06:22:35.217Z,11.37
2023-12-04T06:25:02.381Z,10.90
2023-12-04T06:27:29.513Z,11.52
2023-12-04T06:29:56.636Z,11.05
2023-12-04T06:32:23.715Z,11.75
2023-12-04T06:34:50.877Z,11.63
2023-12-04T06:37:18.159Z,11.70
2023-12-04T06:39:46.963Z,12.85
2023-12-04T06:42:14.349Z,11.02
2023-12-04T06:44:41.596Z,11.00
2023-12-04T06:47:10.504Z,11.48
2023-12-04T06:49:37.455Z,11.77
2023-12-04T06:56:23.598Z,11.73
2023-12-04T06:58:50.410Z,11.75
2023-12-04T07:01:17.512Z,11.20
2023-12-04T07:03:44.202Z,11.55
2023-12-04T07:06:11.216Z,10.45
2023-12-04T07:08:38.021Z,11.85
2023-12-04T07:11:05.875Z,11.85
2023-12-04T07:13:32.565Z,11.38
2023-12-04T07:16:00.886Z,10.60
2023-12-04T07:18:27.808Z,10.53
2023-12-04T07:20:54.491Z,10.93
2023-12-04T07:23:21.415Z,11.30
2023-12-04T07:25:48.883Z,10.75
2023-12-04T07:28:18.006Z,11.45
2023-12-04T07:30:44.757Z,10.25
2023-12-04T07:33:11.495Z,11.27
2023-12-04T07:35:38.372Z,10.90
2023-12-04T07:38:05.042Z,10.73
2023-12-04T07:40:31.752Z,10.27
2023-12-04T07:42:58.896Z,9.13
2023-12-04T07:45:25.575Z,9.65
2023-12-04T07:47:52.336Z,9.07
2023-12-04T07:50:18.993Z,9.95
2023-12-04T07:52:45.621Z,10.07
2023-12-04T07:55:12.371Z,9.95
2023-12-04T07:57:39.422Z,9.60
2023-12-04T08:00:07.009Z,9.57
2023-12-04T08:02:33.668Z,9.55
2023-12-04T08:05:01.801Z,9.38
2023-12-04T08:07:28.628Z,9.35
2023-12-04T08:09:55.789Z,9.20
2023-12-04T08:12:22.657Z,8.32
2023-12-04T08:14:49.467Z,9.15
2023-12-04T08:17:16.158Z,9.40
2023-12-04T08:19:43.168Z,10.68
2023-12-04T08:22:10.174Z,9.57
2023-12-04T08:24:36.900Z,10.07
2023-12-04T08:27:03.749Z,9.00
2023-12-04T08:29:30.429Z,9.55
2023-12-04T08:31:57.051Z,8.82
2023-12-04T08:34:23.747Z,9.18
2023-12-04T08:36:50.520Z,9.65
2023-12-04T08:39:17.222Z,8.90
2023-12-04T08:41:55.068Z,8.10
2023-12-04T08:44:28.402Z,8.63
2023-12-04T08:46:56.127Z,7.80
2023-12-04T08:49:24.392Z,8.57
2023-12-04T08:51:55.553Z,8.18
2023-12-04T08:54:22.450Z,8.20
2023-12-04T08:56:49.209Z,7.78
2023-12-04T08:59:15.849Z,8.60
2023-12-04T09:01:42.673Z,6.60
2023-12-04T09:04:10.697Z,5.85
2023-12-04T09:09:10.973Z,5.63
2023-12-04T09:11:44.622Z,6.25
2023-12-04T09:14:12.282Z,6.47
2023-12-04T09:16:39.014Z,5.38
2023-12-04T09:19:05.892Z,5.30
2023-12-04T09:21:33.105Z,6.60
2023-12-04T09:23:59.860Z,5.97
2023-12-04T09:26:26.503Z,5.15
2023-12-04T09:28:53.443Z,5.00
2023-12-04T09:31:20.887Z,4.82
2023-12-04T09:33:50.493Z,5.93
2023-12-04T09:36:17.520Z,8.27
2023-12-04T09:38:44.896Z,5.93
2023-12-04T09:41:13.757Z,6.30
2023-12-04T09:43:42.737Z,5.95
2023-12-04T09:46:10.793Z,5.78
2023-12-04T09:48:39.102Z,5.57
2023-12-04T09:51:06.765Z,6.37
2023-12-04T09:53:34.588Z,5.22
2023-12-04T09:56:08.204Z,5.38
2023-12-04T09:58:37.378Z,5.32
2023-12-04T10:01:05.348Z,6.05
2023-12-04T10:03:32.946Z,5.35
2023-12-04T10:06:00.015Z,5.68
2023-12-04T10:08:26.740Z,5.53
2023-12-04T10:10:53.504Z,7.07
2023-12-04T10:13:55.405Z,6.43
2023-12-04T10:16:07.204Z,7.10
2023-12-04T10:18:35.334Z,7.22
2023-12-04T10:21:04.093Z,7.38
2023-12-04T10:23:44.596Z,7.38
2023-12-04T10:26:16.405Z,7.13
2023-12-04T10:29:00.392Z,7.82
2023-12-04T10:31:27.062Z,6.82
2023-12-04T10:33:53.805Z,6.70
2023-12-04T10:36:20.592Z,7.13
2023-12-04T10:38:47.264Z,7.60
2023-12-04T10:41:16.902Z,7.13
2023-12-04T10:43:57.240Z,6.47
2023-12-04T10:46:28.786Z,7.65
2023-12-04T10:48:56.262Z,7.65
2023-12-04T10:51:23.396Z,6.70
2023-12-04T10:53:50.595Z,6.63
2023-12-04T10:56:24.789Z,6.57
2023-12-04T10:58:54.296Z,6.03
2023-12-04T11:01:24.786Z,6.63
2023-12-04T11:03:55.385Z,5.75
2023-12-04T11:06:23.263Z,4.07
2023-12-04T11:08:52.048Z,3.95
2023-12-04T11:11:32.908Z,4.35
2023-12-04T11:14:02.985Z,5.15
2023-12-04T11:16:43.418Z,3.58
2023-12-04T11:19:25.984Z,3.88
2023-12-04T11:21:54.326Z,4.75
2023-12-04T11:24:22.787Z,3.78
2023-12-04T11:26:51.293Z,3.40
2023-12-04T11:29:18.856Z,3.70
2023-12-04T11:31:47.092Z,3.28
2023-12-04T11:34:13.978Z,3.83
2023-12-04T11:36:41.187Z,3.50
2023-12-04T11:39:12.166Z,3.80
2023-12-04T11:41:39.353Z,3.63
2023-12-04T11:44:16.835Z,3.45
2023-12-04T11:46:57.725Z,3.30
2023-12-04T11:49:32.468Z,2.90
2023-12-04T11:52:00.946Z,3.78
2023-12-04T11:54:29.613Z,3.83
2023-12-04T11:57:02.439Z,4.00
2023-12-04T11:59:29.231Z,3.55
2023-12-04T12:02:00.187Z,4.00
2023-12-04T12:04:29.014Z,3.85
2023-12-04T12:06:56.168Z,3.78
2023-12-04T12:09:24.142Z,4.32
2023-12-04T12:11:50.980Z,4.30
2023-12-04T12:14:22.138Z,4.07
2023-12-04T12:16:49.246Z,3.83
2023-12-04T12:19:16.564Z,4.47
2023-12-04T12:21:43.400Z,4.78
2023-12-04T12:24:13.815Z,4.93
2023-12-04T12:26:40.910Z,4.07
2023-12-04T12:29:07.918Z,4.80
2023-12-04T12:31:34.610Z,4.28
2023-12-04T12:34:01.342Z,4.43
2023-12-04T12:36:28.456Z,4.43
2023-12-04T12:38:55.525Z,4.07
2023-12-04T12:41:22.185Z,3.85
2023-12-04T12:43:52.893Z,4.10
2023-12-04T12:46:20.037Z,4.53
2023-12-04T12:48:48.602Z,4.75
2023-12-04T12:51:15.754Z,6.05
2023-12-04T12:53:47.714Z,4.97
2023-12-04T12:56:17.480Z,4.15
2023-12-04T12:58:44.229Z,3.80
2023-12-04T13:01:12.229Z,4.38
2023-12-04T13:03:39.298Z,3.88
2023-12-04T13:06:06.340Z,4.35
2023-12-04T13:08:33.412Z,4.07
2023-12-04T13:11:00.456Z,4.15
2023-12-04T13:13:28.243Z,3.95
2023-12-04T13:15:55.780Z,4.20
2023-12-04T13:18:22.828Z,5.35
2023-12-04T13:20:49.633Z,3.42
2023-12-04T13:23:16.503Z,4.03
2023-12-04T13:25:44.978Z,4.50
2023-12-04T13:28:20.023Z,4.40
2023-12-04T13:30:55.129Z,4.30
2023-12-04T13:33:21.883Z,6.63
2023-12-04T13:35:48.611Z,6.70
2023-12-04T13:38:21.207Z,6.82
2023-12-04T13:41:01.030Z,7.07
2023-12-04T13:43:46.888Z,7.20
2023-12-04T13:46:13.681Z,7.13
2023-12-04T13:48:42.024Z,28.67
2023-12-04T13:51:11.303Z,6.40
2023-12-04T13:53:51.073Z,5.38
2023-12-04T13:56:36.613Z,5.10
2023-12-04T13:59:05.773Z,5.35
2023-12-04T14:01:32.666Z,6.50
2023-12-04T14:04:03.531Z,8.20
2023-12-04T14:06:30.515Z,6.55
2023-12-04T14:08:58.676Z,6.32
2023-12-04T14:11:25.628Z,5.18
2023-12-04T14:13:52.516Z,5.90
2023-12-04T14:16:19.481Z,4.18
2023-12-04T14:18:46.894Z,3.55
2023-12-04T14:21:13.645Z,3.17
2023-12-04T14:23:40.364Z,3.65
2023-12-04T14:26:07.393Z,3.95
2023-12-04T14:28:42.201Z,4.00
2023-12-04T14:31:11.206Z,4.00
2023-12-04T14:33:41.508Z,3.58
2023-12-04T14:36:10.401Z,3.40
2023-12-04T14:38:37.667Z,3.58
2023-12-04T14:41:05.033Z,3.50
2023-12-04T14:43:31.681Z,4.70
2023-12-04T14:45:58.358Z,3.97
2023-12-04T14:48:25.075Z,3.38
2023-12-04T14:50:51.954Z,3.70
2023-12-04T14:53:31.902Z,3.22
2023-12-04T14:56:17.351Z,4.28
2023-12-04T14:58:46.782Z,3.22
2023-12-04T15:04:27.947Z,3.70
2023-12-04T15:07:00.880Z,3.10
2023-12-04T15:09:45.899Z,3.15
2023-12-04T15:12:36.764Z,4.45
2023-12-04T15:15:32.069Z,5.82
2023-12-04T15:18:18.985Z,5.47
2023-12-04T15:20:45.919Z,4.72
2023-12-04T15:23:13.169Z,5.10
2023-12-04T15:25:40.968Z,5.60
2023-12-04T15:28:08.642Z,5.55
2023-12-04T15:30:42.778Z,5.85
2023-12-04T15:33:09.647Z,5.95
2023-12-04T15:35:38.594Z,5.50
2023-12-04T15:38:05.298Z,5.68
2023-12-04T15:40:32.110Z,5.97
2023-12-04T15:42:59.431Z,5.40
2023-12-04T15:45:27.169Z,5.70
2023-12-04T15:47:53.975Z,5.57
2023-12-04T15:50:23.607Z,6.03
2023-12-04T15:52:50.514Z,6.30
2023-12-04T15:55:17.425Z,6.47
2023-12-04T15:57:44.189Z,5.90
2023-12-04T16:00:14.095Z,6.53
2023-12-04T16:02:41.551Z,5.55
2023-12-04T16:05:11.986Z,5.35
2023-12-04T16:07:39.147Z,4.68
2023-12-04T16:10:07.979Z,4.97
2023-12-04T16:12:35.060Z,4.85
2023-12-04T16:15:03.025Z,4.32
2023-12-04T16:17:29.697Z,5.63
2023-12-04T16:20:01.227Z,4.00
2023-12-04T16:22:28.080Z,4.25
2023-12-04T16:24:54.814Z,4.78
2023-12-04T16:27:21.546Z,4.75
2023-12-04T16:29:48.347Z,4.68
2023-12-04T16:32:15.050Z,4.72
2023-12-04T16:34:41.938Z,5.57
2023-12-04T16:37:08.617Z,8.13
2023-12-04T16:39:35.322Z,7.82
2023-12-04T16:42:02.085Z,7.32
2023-12-04T16:44:28.917Z,7.53
2023-12-04T16:46:58.902Z,9.18
2023-12-04T16:49:26.124Z,7.82
2023-12-04T16:51:53.522Z,8.68
2023-12-04T16:54:21.060Z,6.95
2023-12-04T16:56:51.204Z,7.60
2023-12-04T16:59:19.135Z,6.90
2023-12-04T17:01:45.918Z,6.65
2023-12-04T17:04:14.522Z,8.82
2023-12-04T17:06:41.638Z,8.38
2023-12-04T17:09:08.516Z,8.65
2023-12-04T17:11:35.256Z,7.55
2023-12-04T17:14:02.001Z,7.35
2023-12-04T17:16:29.563Z,8.05
2023-12-04T17:18:56.464Z,7.40
2023-12-04T17:21:23.551Z,7.75
2023-12-04T17:23:50.255Z,6.85
2023-12-04T17:26:16.930Z,7.88
2023-12-04T17:28:43.729Z,7.47
2023-12-04T17:31:11.264Z,7.82
2023-12-04T17:33:39.344Z,7.60
2023-12-04T17:36:06.891Z,7.18
2023-12-04T17:38:33.629Z,6.65
2023-12-04T17:41:00.301Z,6.25
2023-12-04T17:43:27.073Z,5.55
2023-12-04T17:45:53.768Z,6.38
2023-12-04T17:48:20.548Z,5.78
2023-12-04T17:50:47.169Z,6.50
2023-12-04T17:53:13.884Z,7.60
2023-12-04T17:55:40.607Z,9.70
2023-12-04T17:58:07.686Z,10.02
2023-12-04T18:00:34.637Z,8.63
2023-12-04T18:03:01.417Z,8.70
2023-12-04T18:05:28.120Z,8.75
2023-12-04T18:07:56.350Z,8.95
2023-12-04T18:10:23.526Z,6.53
2023-12-04T18:12:50.311Z,5.57
2023-12-04T18:15:17.125Z,6.18
2023-12-04T18:17:44.258Z,5.22
2023-12-04T18:20:16.399Z,5.82
2023-12-04T18:22:45.948Z,5.63
2023-12-04T18:27:40.932Z,5.85
2023-12-04T18:30:11.301Z,5.35
2023-12-04T18:32:38.624Z,5.55
2023-12-04T18:35:06.084Z,4.75
2023-12-04T18:37:36.524Z,4.70
2023-12-04T18:40:05.777Z,5.15
2023-12-04T18:42:32.754Z,4.55
2023-12-04T18:44:59.820Z,5.43
2023-12-04T18:47:28.336Z,5.60
2023-12-04T18:49:58.296Z,5.45
2023-12-04T18:52:25.449Z,6.03
2023-12-04T18:54:52.193Z,5.75
2023-12-04T18:57:18.952Z,4.93
2023-12-04T18:59:45.688Z,5.25
2023-12-04T19:02:12.438Z,5.55
2023-12-04T19:04:39.359Z,5.85
2023-12-04T19:07:06.167Z,6.10
2023-12-04T19:09:32.931Z,6.15
2023-12-04T19:11:59.913Z,6.07
2023-12-04T19:14:26.630Z,6.45
2023-12-04T19:16:53.270Z,6.60
2023-12-04T19:19:20.004Z,6.20
2023-12-04T19:21:46.777Z,6.32
2023-12-04T19:24:13.483Z,5.97
2023-12-04T19:26:40.150Z,6.47
2023-12-04T19:29:07.538Z,5.40
2023-12-04T19:31:34.207Z,5.38
2023-12-04T19:34:01.068Z,6.07
2023-12-04T19:36:27.912Z,5.97
2023-12-04T19:38:54.573Z,6.10
2023-12-04T19:41:31.430Z,6.20
2023-12-04T19:43:58.461Z,6.93
2023-12-04T19:46:25.190Z,6.50
2023-12-04T19:48:53.801Z,6.90
2023-12-04T19:51:21.209Z,6.20
2023-12-04T19:53:48.244Z,6.80
2023-12-04T19:56:14.934Z,6.88
2023-12-04T19:58:42.189Z,6.95
2023-12-04T20:01:09.264Z,6.80
2023-12-04T20:03:36.111Z,7.05
2023-12-04T20:06:04.099Z,5.78
2023-12-04T20:08:31.805Z,6.38
2023-12-04T20:10:58.463Z,7.97
2023-12-04T20:13:25.112Z,8.02
2023-12-04T20:15:51.806Z,8.88
2023-12-04T20:18:18.546Z,9.32
2023-12-04T20:20:45.302Z,7.80
2023-12-04T20:23:13.123Z,7.80
2023-12-04T20:25:41.494Z,9.18
2023-12-04T20:28:08.537Z,8.00
2023-12-04T20:30:35.909Z,7.80
2023-12-04T20:33:03.959Z,8.00
2023-12-04T20:35:31.772Z,8.48
2023-12-04T20:37:59.381Z,8.68
2023-12-04T20:40:26.055Z,8.60
2023-12-04T20:42:52.791Z,8.82
2023-12-04T20:45:19.545Z,9.25
2023-12-04T20:47:46.383Z,9.25
2023-12-04T20:50:13.110Z,9.35
2023-12-04T20:52:39.834Z,11.23
2023-12-04T20:55:07.148Z,10.38
2023-12-04T20:57:34.553Z,10.15
2023-12-04T21:00:01.398Z,10.80
2023-12-04T21:02:28.057Z,10.40
2023-12-04T21:04:55.080Z,9.23
2023-12-04T21:07:23.075Z,9.00
2023-12-04T21:09:51.036Z,8.90
2023-12-04T21:12:17.851Z,8.50
2023-12-04T21:14:44.768Z,8.65
2023-12-04T21:17:11.442Z,8.57
2023-12-04T21:19:38.258Z,9.50
2023-12-04T21:22:05.250Z,8.05
2023-12-04T21:24:32.511Z,8.73
2023-12-04T21:26:59.378Z,9.48
2023-12-04T21:29:26.128Z,9.27
2023-12-04T21:31:52.846Z,9.25
2023-12-04T21:34:19.839Z,8.40
2023-12-04T21:36:46.682Z,9.45
2023-12-04T21:39:14.278Z,9.25
2023-12-04T21:41:41.117Z,8.68
2023-12-04T21:44:08.008Z,8.95
2023-12-04T21:46:36.345Z,9.32
2023-12-04T21:49:04.424Z,10.80
2023-12-04T21:51:31.654Z,9.55
2023-12-04T21:53:58.433Z,9.52
2023-12-04T21:56:25.681Z,9.48
2023-12-04T21:58:52.442Z,10.45
2023-12-04T22:01:19.250Z,9.18
2023-12-04T22:03:46.071Z,9.55
2023-12-04T22:06:13.194Z,8.75
2023-12-04T22:08:40.219Z,9.93
2023-12-04T22:11:07.408Z,9.25
2023-12-04T22:13:34.007Z,9.05
2023-12-04T22:16:00.839Z,10.23
2023-12-04T22:18:28.514Z,10.45
2023-12-04T22:20:55.834Z,10.18
2023-12-04T22:23:22.458Z,11.45
2023-12-04T22:25:49.268Z,11.20
2023-12-04T22:28:16.004Z,11.57
2023-12-04T22:30:43.706Z,12.32
2023-12-04T22:33:10.567Z,11.57
2023-12-04T22:35:37.262Z,11.48
2023-12-04T22:38:04.121Z,12.60
2023-12-04T22:40:30.860Z,11.77
2023-12-04T22:42:57.654Z,11.20
2023-12-04T22:45:24.614Z,10.90
2023-12-04T22:47:51.511Z,12.15
2023-12-04T22:50:18.438Z,12.23
2023-12-04T22:52:47.834Z,10.68
2023-12-04T22:55:19.199Z,11.52
2023-12-04T22:57:45.958Z,10.98
2023-12-04T23:00:13.477Z,11.10
2023-12-04T23:02:43.170Z,11.05
2023-12-04T23:05:10.053Z,9.57
2023-12-04T23:07:37.816Z,10.32
2023-12-04T23:10:07.058Z,10.50
2023-12-04T23:15:00.780Z,10.43
2023-12-04T23:17:27.795Z,11.45
2023-12-04T23:19:54.636Z,14.48
2023-12-04T23:22:22.052Z,13.93
2023-12-04T23:24:48.933Z,15.30
2023-12-04T23:27:22.416Z,13.55
2023-12-04T23:29:55.222Z,12.65
2023-12-04T23:32:22.002Z,12.55
2023-12-04T23:34:48.915Z,12.80
2023-12-04T23:37:15.680Z,13.23
2023-12-04T23:39:42.692Z,13.07
2023-12-04T23:42:09.471Z,12.50
2023-12-04T23:44:36.269Z,12.32
2023-12-04T23:47:02.990Z,13.50
2023-12-04T23:49:29.912Z,13.00
2023-12-04T23:51:56.694Z,12.30
2023-12-04T23:54:23.504Z,13.43
2023-12-04T23:56:50.382Z,14.27
2023-12-04T23:59:17.125Z,13.88
